Time;durP1;ratioP1;P1;durP2;ratioP2;P2;SDS_P1;SDS_P2;PMS_P1;PMS_P2;Temp;Humidity;BMP_temperature;BMP_pressure;BME280_temperature;BME280_humidity;BME280_pressure;Samples;Min_cycle;Max_cycle;Signal;HPM_P1;HPM_P2
2021/11/15 00:00:00;;;;;;;19.07;11.37;;;13.20;61.70;;;;;;5012711;28;20437;-48
2021/11/15 00:02:26;;;;;;;16.57;11.63;;;13.20;61.20;;;;;;5011817;28;20910;-49
2021/11/15 00:04:52;;;;;;;19.00;10.20;;;13.30;61.10;;;;;;5012722;28;20417;-50
2021/11/15 00:07:18;;;;;;;18.93;12.00;;;13.20;61.40;;;;;;5012081;28;20424;-49
2021/11/15 00:09:44;;;;;;;16.53;12.23;;;13.40;61.00;;;;;;5012558;28;20468;-49
2021/11/15 00:12:11;;;;;;;18.63;11.80;;;13.40;60.70;;;;;;5012274;28;20189;-50
2021/11/15 00:14:37;;;;;;;16.00;11.33;;;13.30;61.00;;;;;;5012440;28;20305;-50
2021/11/15 00:17:04;;;;;;;15.00;10.60;;;13.20;60.90;;;;;;5012260;28;20504;-50
2021/11/15 00:19:30;;;;;;;17.27;10.77;;;13.10;61.20;;;;;;5010876;28;20189;-46
2021/11/15 00:21:56;;;;;;;13.77;10.50;;;13.00;61.70;;;;;;4994508;28;20498;-49
2021/11/15 00:24:22;;;;;;;13.03;9.93;;;13.10;61.40;;;;;;5012351;28;20332;-50
2021/11/15 00:26:47;;;;;;;14.03;9.10;;;13.10;61.30;;;;;;5011885;28;20432;-50
2021/11/15 00:29:13;;;;;;;15.80;10.83;;;13.10;61.20;;;;;;5012662;28;20433;-50
2021/11/15 00:31:39;;;;;;;15.50;11.37;;;13.20;61.10;;;;;;5012036;28;20260;-49
2021/11/15 00:34:04;;;;;;;17.93;10.33;;;13.30;60.70;;;;;;5011522;28;20381;-49
2021/11/15 00:36:30;;;;;;;13.77;10.30;;;13.30;60.60;;;;;;5011791;28;20569;-49
2021/11/15 00:38:56;;;;;;;13.70;9.00;;;13.30;60.40;;;;;;5012015;28;20212;-49
2021/11/15 00:41:22;;;;;;;14.23;9.90;;;13.20;60.40;;;;;;5011587;28;20194;-50
2021/11/15 00:43:47;;;;;;;14.00;10.07;;;13.10;60.90;;;;;;5011711;28;20257;-50
2021/11/15 00:46:13;;;;;;;14.53;10.27;;;13.10;60.70;;;;;;5009637;28;20823;-48
2021/11/15 00:48:39;;;;;;;13.83;8.80;;;12.90;61.30;;;;;;5012054;28;20553;-49
2021/11/15 00:51:04;;;;;;;13.70;9.43;;;12.90;61.60;;;;;;5011652;28;20542;-50
2021/11/15 00:53:30;;;;;;;13.07;8.90;;;12.80;61.40;;;;;;5011638;28;20194;-49
2021/11/15 00:55:56;;;;;;;15.03;9.97;;;12.80;61.40;;;;;;5011106;28;20568;-47
2021/11/15 00:58:22;;;;;;;15.33;10.80;;;12.80;61.60;;;;;;5012295;28;20206;-48
2021/11/15 01:00:47;;;;;;;13.43;9.60;;;12.80;61.40;;;;;;5011434;28;20198;-48
2021/11/15 01:03:14;;;;;;;15.23;10.57;;;12.70;61.20;;;;;;5011256;28;20299;-46
2021/11/15 01:05:47;;;;;;;13.20;8.37;;;12.70;61.30;;;;;;5010983;28;20194;-48
2021/11/15 01:08:13;;;;;;;14.60;9.50;;;12.70;61.20;;;;;;5011338;28;20468;-48
2021/11/15 01:10:39;;;;;;;13.13;9.37;;;12.60;61.00;;;;;;5011200;28;20441;-50
2021/11/15 01:13:05;;;;;;;15.93;9.53;;;12.70;61.30;;;;;;5009594;28;20429;-48
2021/11/15 01:15:32;;;;;;;18.20;10.90;;;12.80;61.30;;;;;;4993586;28;20213;-48
2021/11/15 01:17:59;;;;;;;12.40;9.30;;;12.90;60.80;;;;;;5011581;28;20424;-48
2021/11/15 01:20:31;;;;;;;12.60;9.30;;;12.70;60.90;;;;;;5010983;28;20429;-50
2021/11/15 01:22:58;;;;;;;16.60;9.70;;;12.60;61.00;;;;;;5011051;28;20481;-49
2021/11/15 01:25:25;;;;;;;13.60;10.37;;;12.60;61.40;;;;;;5010745;28;20801;-47
2021/11/15 01:27:50;;;;;;;15.87;10.77;;;12.70;61.40;;;;;;5011430;28;20448;-50
2021/11/15 01:30:18;;;;;;;14.43;9.77;;;12.70;61.20;;;;;;5010629;28;20469;-49
2021/11/15 01:32:44;;;;;;;13.67;9.20;;;12.90;60.90;;;;;;4991207;28;20205;-49
2021/11/15 01:35:10;;;;;;;12.53;8.67;;;12.80;60.40;;;;;;5006506;28;20446;-47
2021/11/15 01:37:38;;;;;;;13.30;9.67;;;12.70;60.30;;;;;;4996025;28;20479;-50
2021/11/15 01:40:06;;;;;;;12.60;9.17;;;12.70;60.10;;;;;;5009615;28;20431;-46
2021/11/15 01:42:32;;;;;;;15.07;10.23;;;12.70;60.50;;;;;;5010415;28;20984;-50
2021/11/15 01:44:58;;;;;;;13.37;8.53;;;12.80;60.50;;;;;;5010143;28;20437;-50
2021/11/15 01:47:24;;;;;;;13.67;9.10;;;12.80;60.30;;;;;;5010737;28;20987;-48
2021/11/15 01:49:50;;;;;;;10.73;7.83;;;12.90;60.10;;;;;;5011170;28;20329;-49
2021/11/15 01:52:16;;;;;;;10.97;8.57;;;13.00;59.90;;;;;;5010204;28;20678;-50
2021/11/15 01:54:41;;;;;;;13.23;9.93;;;13.20;59.50;;;;;;5010916;28;20444;-49
2021/11/15 01:57:07;;;;;;;12.53;9.47;;;12.90;59.20;;;;;;5010465;28;20436;-49
2021/11/15 01:59:33;;;;;;;15.20;10.30;;;12.90;59.80;;;;;;5011238;28;20244;-50
2021/11/15 02:01:59;;;;;;;13.57;9.53;;;12.80;60.00;;;;;;5010489;28;20755;-50
2021/11/15 02:04:24;;;;;;;15.80;10.10;;;12.80;60.10;;;;;;5010411;28;20297;-49
2021/11/15 02:06:51;;;;;;;12.97;9.60;;;12.90;60.70;;;;;;5008743;28;20190;-48
2021/11/15 02:09:17;;;;;;;15.70;10.63;;;12.90;59.50;;;;;;5010812;28;20238;-50
2021/11/15 02:11:43;;;;;;;14.90;9.37;;;12.80;59.70;;;;;;5010447;28;20547;-49
2021/11/15 02:14:08;;;;;;;13.53;10.40;;;12.80;59.90;;;;;;5010288;28;20198;-48
2021/11/15 02:16:34;;;;;;;13.10;8.80;;;12.80;59.80;;;;;;5009330;28;20629;-48
2021/11/15 02:19:00;;;;;;;12.70;9.00;;;12.70;59.80;;;;;;5011024;28;20196;-50
2021/11/15 02:21:25;;;;;;;14.97;10.10;;;12.60;60.40;;;;;;5010028;28;20198;-46
2021/11/15 02:23:52;;;;;;;13.03;9.00;;;12.70;59.80;;;;;;5010415;28;20524;-46
2021/11/15 02:26:21;;;;;;;12.40;8.73;;;12.80;59.40;;;;;;5010175;28;20268;-48
2021/11/15 02:28:49;;;;;;;12.73;9.33;;;12.90;59.20;;;;;;5010599;28;20488;-46
2021/11/15 02:31:17;;;;;;;12.50;8.20;;;13.10;58.80;;;;;;5009953;28;20433;-47
2021/11/15 02:33:43;;;;;;;15.20;8.83;;;13.20;58.40;;;;;;5008713;28;20494;-46
2021/11/15 02:36:09;;;;;;;14.13;9.83;;;13.30;58.40;;;;;;4992480;28;20960;-48
2021/11/15 02:38:36;;;;;;;16.53;10.77;;;13.40;58.30;;;;;;5010323;28;20460;-50
2021/11/15 02:41:03;;;;;;;16.00;11.27;;;13.30;59.00;;;;;;5010427;28;20421;-50
2021/11/15 02:43:29;;;;;;;15.97;10.10;;;13.10;58.90;;;;;;5010262;28;20607;-49
2021/11/15 02:45:54;;;;;;;16.20;10.80;;;12.90;59.30;;;;;;5010127;28;20428;-49
2021/11/15 02:48:25;;;;;;;18.30;11.63;;;12.90;59.40;;;;;;5010581;28;20424;-49
2021/11/15 02:50:50;;;;;;;16.87;11.70;;;13.10;59.00;;;;;;5009946;28;20229;-50
2021/11/15 02:53:17;;;;;;;17.67;12.90;;;12.90;59.50;;;;;;5010294;28;20453;-47
2021/11/15 02:55:43;;;;;;;18.93;12.17;;;12.80;60.00;;;;;;5010927;28;20251;-49
2021/11/15 02:58:09;;;;;;;17.13;11.70;;;12.80;60.00;;;;;;5013646;28;20531;-50
2021/11/15 03:00:42;;;;;;;17.07;12.33;;;12.60;60.10;;;;;;5011974;28;20912;-47
2021/11/15 03:03:09;;;;;;;17.87;12.90;;;12.70;60.40;;;;;;5013547;28;20926;-50
2021/11/15 03:05:38;;;;;;;17.80;12.17;;;12.70;60.10;;;;;;5013604;28;20421;-50
2021/11/15 03:08:05;;;;;;;18.97;13.30;;;12.60;60.20;;;;;;5014004;28;20979;-50
2021/11/15 03:10:32;;;;;;;16.63;11.97;;;12.40;60.70;;;;;;5013382;28;20500;-49
2021/11/15 03:13:00;;;;;;;24.63;13.00;;;12.40;61.00;;;;;;5013379;28;20429;-49
2021/11/15 03:15:35;;;;;;;18.00;11.13;;;12.50;61.10;;;;;;5013091;28;20808;-48
2021/11/15 03:18:03;;;;;;;16.27;11.60;;;12.60;60.90;;;;;;5014000;28;20448;-50
2021/11/15 03:20:32;;;;;;;17.07;11.90;;;12.50;60.70;;;;;;5013160;28;20444;-49
2021/11/15 03:22:57;;;;;;;18.00;12.50;;;12.60;60.60;;;;;;5012854;28;20477;-47
2021/11/15 03:25:26;;;;;;;16.20;11.57;;;12.70;60.30;;;;;;5013091;28;20460;-49
2021/11/15 03:27:52;;;;;;;16.50;11.10;;;12.70;60.20;;;;;;5012104;28;20201;-50
2021/11/15 03:30:18;;;;;;;14.77;11.23;;;12.80;60.10;;;;;;5012884;28;20508;-49
2021/11/15 03:32:46;;;;;;;17.37;10.63;;;12.90;59.80;;;;;;5013095;28;20528;-49
2021/11/15 03:35:13;;;;;;;17.53;11.70;;;12.80;59.50;;;;;;5012877;28;20186;-47
2021/11/15 03:37:39;;;;;;;14.57;10.80;;;12.70;59.80;;;;;;5013146;28;20439;-51
2021/11/15 03:40:08;;;;;;;16.00;10.87;;;13.00;59.80;;;;;;5013287;28;20413;-48
2021/11/15 03:42:37;;;;;;;22.17;12.37;;;13.10;59.30;;;;;;5012689;28;20234;-49
2021/11/15 03:45:03;;;;;;;15.77;9.93;;;13.10;59.10;;;;;;5013192;28;20429;-50
2021/11/15 03:47:29;;;;;;;12.67;10.17;;;13.30;58.90;;;;;;4995184;28;20452;-48
2021/11/15 03:49:56;;;;;;;14.97;11.00;;;13.20;58.60;;;;;;5012011;28;20448;-46
2021/11/15 03:52:22;;;;;;;14.47;9.70;;;13.00;59.10;;;;;;5012336;28;20568;-50
2021/11/15 03:54:48;;;;;;;15.17;10.17;;;13.00;58.90;;;;;;5011306;28;20538;-46
2021/11/15 03:57:14;;;;;;;13.47;9.90;;;12.90;59.00;;;;;;5012544;28;20901;-49
2021/11/15 03:59:39;;;;;;;14.23;10.57;;;12.90;59.00;;;;;;5013010;28;20265;-50
2021/11/15 04:02:07;;;;;;;15.00;10.10;;;12.80;59.10;;;;;;5012152;28;20229;-50
2021/11/15 04:04:49;;;;;;;14.73;9.70;;;12.70;59.60;;;;;;5013082;28;20678;-51
2021/11/15 04:07:15;;;;;;;15.47;10.20;;;12.40;60.00;;;;;;5011720;28;20884;-49
2021/11/15 04:09:41;;;;;;;14.73;9.50;;;12.50;60.10;;;;;;5012430;28;20469;-49
2021/11/15 04:12:07;;;;;;;13.97;8.73;;;12.40;59.90;;;;;;5011637;28;20443;-46
2021/11/15 04:14:33;;;;;;;14.40;10.10;;;12.30;60.10;;;;;;5012707;28;20676;-49
2021/11/15 04:16:58;;;;;;;13.87;9.90;;;12.20;60.40;;;;;;5012060;28;20441;-50
2021/11/15 04:19:25;;;;;;;13.90;9.83;;;12.20;60.50;;;;;;5011777;28;20201;-50
2021/11/15 04:21:51;;;;;;;14.97;9.40;;;12.10;60.50;;;;;;5011079;28;20588;-48
2021/11/15 04:24:17;;;;;;;13.57;9.13;;;12.00;61.20;;;;;;5012351;28;20440;-50
2021/11/15 04:26:43;;;;;;;15.63;10.20;;;12.10;61.20;;;;;;5011926;28;20535;-50
2021/11/15 04:29:09;;;;;;;13.40;9.73;;;12.20;60.90;;;;;;5012240;28;20491;-49
2021/11/15 04:31:34;;;;;;;12.83;9.23;;;12.30;60.60;;;;;;5011869;28;20432;-49
2021/11/15 04:34:00;;;;;;;14.00;9.00;;;12.30;60.30;;;;;;5011904;28;20196;-50
2021/11/15 04:36:25;;;;;;;12.90;9.30;;;12.30;60.30;;;;;;5011980;28;20202;-47
2021/11/15 04:38:51;;;;;;;11.93;9.07;;;12.20;60.20;;;;;;5012130;28;20186;-47
2021/11/15 04:41:17;;;;;;;12.77;9.00;;;12.40;60.20;;;;;;5011629;28;20639;-50
2021/11/15 04:43:43;;;;;;;14.03;9.40;;;12.40;59.80;;;;;;5011515;28;20201;-50
2021/11/15 04:46:10;;;;;;;11.17;8.57;;;12.50;59.90;;;;;;5010016;28;20516;-48
2021/11/15 04:48:36;;;;;;;10.90;8.90;;;12.40;59.70;;;;;;5012066;28;20202;-47
2021/11/15 04:51:02;;;;;;;12.73;9.17;;;12.40;60.20;;;;;;5011558;28;20472;-49
2021/11/15 04:53:27;;;;;;;12.53;9.03;;;12.40;59.90;;;;;;5011297;28;20201;-47
2021/11/15 04:55:53;;;;;;;13.90;10.00;;;12.30;59.80;;;;;;5011325;28;20421;-50
2021/11/15 04:58:19;;;;;;;13.30;8.40;;;12.20;59.80;;;;;;5011803;28;20548;-50
2021/11/15 05:00:45;;;;;;;10.07;7.20;;;12.10;60.50;;;;;;5011349;28;20190;-49
2021/11/15 05:03:10;;;;;;;12.30;9.30;;;12.00;60.80;;;;;;5011224;28;20229;-48
2021/11/15 05:05:36;;;;;;;14.50;9.63;;;11.70;61.20;;;;;;5011382;28;20194;-48
2021/11/15 05:08:02;;;;;;;13.07;9.03;;;11.60;62.40;;;;;;5011815;28;20240;-47
2021/11/15 05:10:29;;;;;;;15.07;10.10;;;11.60;62.20;;;;;;5010853;28;20650;-49
2021/11/15 05:12:57;;;;;;;11.90;8.20;;;11.90;62.00;;;;;;5009495;28;20556;-49
2021/11/15 05:15:24;;;;;;;11.17;8.17;;;12.10;60.90;;;;;;5010874;28;20461;-47
2021/11/15 05:17:51;;;;;;;13.60;8.50;;;12.30;60.50;;;;;;5011539;28;20479;-48
2021/11/15 05:20:18;;;;;;;11.40;8.40;;;12.20;60.30;;;;;;5011236;28;20826;-49
2021/11/15 05:22:44;;;;;;;13.43;8.70;;;12.20;60.40;;;;;;5010927;28;20524;-48
2021/11/15 05:25:11;;;;;;;11.10;8.30;;;12.20;60.30;;;;;;5011325;28;20524;-50
2021/11/15 05:27:37;;;;;;;11.40;8.37;;;12.20;60.70;;;;;;5011212;28;20256;-50
2021/11/15 05:30:09;;;;;;;11.27;7.90;;;12.20;60.30;;;;;;5011757;28;20433;-50
2021/11/15 05:32:35;;;;;;;12.73;8.50;;;12.20;60.10;;;;;;5010423;28;20424;-51
2021/11/15 05:35:01;;;;;;;11.17;8.43;;;12.00;60.60;;;;;;5011475;28;20483;-48
2021/11/15 05:37:27;;;;;;;15.63;8.77;;;11.80;60.90;;;;;;5010607;28;20193;-45
2021/11/15 05:39:53;;;;;;;10.47;7.30;;;11.90;61.10;;;;;;5009626;28;21143;-45
2021/11/15 05:42:18;;;;;;;11.20;7.97;;;12.10;60.80;;;;;;5010117;28;20533;-46
2021/11/15 05:44:44;;;;;;;12.67;8.03;;;12.20;60.40;;;;;;5011307;28;20564;-46
2021/11/15 05:47:10;;;;;;;10.53;7.90;;;12.20;60.00;;;;;;5010581;28;20301;-45
2021/11/15 05:49:35;;;;;;;11.60;8.57;;;12.50;59.70;;;;;;5011278;28;20658;-48
2021/11/15 05:52:01;;;;;;;13.60;9.10;;;12.70;59.20;;;;;;5010629;28;20680;-46
2021/11/15 05:54:27;;;;;;;13.93;8.57;;;12.80;58.90;;;;;;5011009;28;20212;-46
2021/11/15 05:56:53;;;;;;;10.60;6.93;;;12.60;59.00;;;;;;5010357;28;20487;-45
2021/11/15 05:59:19;;;;;;;10.03;7.83;;;12.60;59.30;;;;;;5011200;28;20200;-49
2021/11/15 06:01:44;;;;;;;12.33;8.13;;;12.60;59.10;;;;;;5010205;28;20210;-50
2021/11/15 06:04:11;;;;;;;10.50;7.33;;;12.60;59.20;;;;;;5011198;28;20734;-48
2021/11/15 06:06:37;;;;;;;13.43;8.50;;;12.70;59.10;;;;;;5008565;28;20657;-50
2021/11/15 06:09:03;;;;;;;10.80;8.00;;;12.80;59.00;;;;;;5011062;28;20469;-50
2021/11/15 06:11:29;;;;;;;12.60;8.80;;;12.80;59.40;;;;;;5010502;28;20429;-47
2021/11/15 06:13:55;;;;;;;14.90;8.23;;;12.80;58.60;;;;;;4992832;28;20444;-49
2021/11/15 06:16:21;;;;;;;12.90;9.33;;;12.80;58.40;;;;;;5010392;28;20440;-49
2021/11/15 06:18:46;;;;;;;13.93;9.23;;;12.70;58.70;;;;;;5011026;28;20563;-48
2021/11/15 06:21:12;;;;;;;13.70;9.20;;;12.40;59.00;;;;;;5008985;28;20252;-50
2021/11/15 06:23:38;;;;;;;12.10;9.33;;;12.20;59.40;;;;;;5010280;28;20284;-45
2021/11/15 06:26:04;;;;;;;12.60;8.20;;;12.00;60.00;;;;;;5010516;28;20194;-47
2021/11/15 06:28:30;;;;;;;10.27;7.60;;;12.10;60.30;;;;;;5011137;28;20529;-49
2021/11/15 06:30:56;;;;;;;13.60;9.13;;;12.20;60.20;;;;;;5011041;28;20439;-48
2021/11/15 06:33:22;;;;;;;14.60;8.40;;;12.40;60.00;;;;;;5012690;28;20201;-50
2021/11/15 06:35:48;;;;;;;10.67;7.90;;;12.40;59.80;;;;;;5013894;28;20479;-50
2021/11/15 06:38:13;;;;;;;14.07;9.83;;;12.50;59.90;;;;;;5014451;28;20205;-50
2021/11/15 06:40:40;;;;;;;11.10;8.50;;;12.60;59.50;;;;;;5013666;28;20190;-45
2021/11/15 06:43:06;;;;;;;12.00;8.80;;;12.60;59.20;;;;;;5013866;28;20697;-48
2021/11/15 06:45:33;;;;;;;15.20;9.20;;;12.70;59.00;;;;;;5013973;28;20425;-49
2021/11/15 06:47:59;;;;;;;15.20;11.00;;;12.50;59.30;;;;;;5014288;28;20436;-48
2021/11/15 06:50:25;;;;;;;16.27;10.17;;;12.50;59.30;;;;;;5013369;28;20425;-51
2021/11/15 06:52:52;;;;;;;14.60;9.90;;;12.40;59.60;;;;;;5013761;28;20433;-46
2021/11/15 06:55:21;;;;;;;16.43;9.60;;;12.50;59.50;;;;;;5013345;28;20440;-50
2021/11/15 06:57:47;;;;;;;14.10;9.57;;;12.60;59.20;;;;;;5012901;28;20433;-50
2021/11/15 07:00:18;;;;;;;14.30;9.73;;;12.30;59.50;;;;;;5011892;28;20417;-46
2021/11/15 07:02:45;;;;;;;13.80;9.67;;;12.30;59.70;;;;;;5013303;28;20917;-48
2021/11/15 07:05:11;;;;;;;12.40;10.33;;;12.30;60.10;;;;;;5013501;28;20428;-49
2021/11/15 07:07:38;;;;;;;13.17;8.20;;;12.30;60.10;;;;;;5014109;28;20539;-50
2021/11/15 07:10:09;;;;;;;14.80;9.50;;;12.20;60.40;;;;;;5013539;28;20424;-49
2021/11/15 07:12:34;;;;;;;13.33;9.93;;;12.30;60.20;;;;;;5013073;28;20905;-45
2021/11/15 07:15:02;;;;;;;14.87;9.50;;;12.60;59.90;;;;;;5013934;28;20432;-46
2021/11/15 07:17:27;;;;;;;14.27;8.87;;;12.40;59.90;;;;;;5013135;28;20280;-46
2021/11/15 07:19:53;;;;;;;16.20;9.67;;;12.40;59.70;;;;;;5013867;28;20876;-50
2021/11/15 07:22:19;;;;;;;13.37;9.33;;;12.30;60.00;;;;;;5012544;28;20738;-47
2021/11/15 07:24:44;;;;;;;12.90;8.63;;;12.40;59.90;;;;;;5013616;28;20838;-49
2021/11/15 07:27:10;;;;;;;12.63;9.73;;;12.50;59.90;;;;;;5011340;28;20284;-49
2021/11/15 07:29:36;;;;;;;14.93;10.17;;;12.60;59.70;;;;;;5013450;28;20198;-49
2021/11/15 07:32:08;;;;;;;15.70;9.10;;;12.60;59.50;;;;;;5012768;28;20241;-46
2021/11/15 07:34:33;;;;;;;13.97;9.90;;;12.80;59.40;;;;;;5013611;28;20281;-50
2021/11/15 07:36:59;;;;;;;13.43;10.10;;;12.80;59.20;;;;;;5012792;28;20512;-46
2021/11/15 07:39:24;;;;;;;17.60;11.57;;;12.80;59.00;;;;;;5013412;28;20244;-46
2021/11/15 07:41:50;;;;;;;13.53;9.90;;;12.70;59.20;;;;;;5011624;28;20681;-46
2021/11/15 07:44:16;;;;;;;13.70;10.17;;;12.70;59.40;;;;;;5012953;28;20190;-50
2021/11/15 07:46:41;;;;;;;19.30;9.43;;;12.80;59.30;;;;;;5012848;28;20189;-50
2021/11/15 07:49:07;;;;;;;12.10;9.00;;;12.80;59.10;;;;;;5012073;28;20194;-49
2021/11/15 07:51:33;;;;;;;12.17;8.77;;;12.80;59.20;;;;;;5012046;28;20190;-46
2021/11/15 07:53:59;;;;;;;12.23;8.17;;;12.80;59.40;;;;;;5011734;28;20193;-50
2021/11/15 07:56:25;;;;;;;10.63;8.57;;;12.90;59.30;;;;;;5012333;28;20451;-46
2021/11/15 07:58:50;;;;;;;12.90;9.43;;;13.00;59.10;;;;;;5012908;28;20220;-50
2021/11/15 08:01:16;;;;;;;14.57;9.90;;;13.10;58.90;;;;;;5012271;28;20181;-48
2021/11/15 08:03:42;;;;;;;12.77;8.83;;;13.20;58.80;;;;;;5012311;28;20666;-48
2021/11/15 08:06:10;;;;;;;13.70;10.10;;;13.10;58.70;;;;;;4994793;28;20190;-49
2021/11/15 08:08:36;;;;;;;16.53;10.73;;;12.90;58.80;;;;;;4994897;28;20238;-49
2021/11/15 08:11:06;;;;;;;13.47;8.80;;;13.00;58.90;;;;;;5012217;28;20909;-48
2021/11/15 08:13:32;;;;;;;12.90;9.83;;;13.00;58.90;;;;;;5012399;28;20432;-51
2021/11/15 08:15:57;;;;;;;13.63;8.90;;;12.90;58.80;;;;;;5012211;28;20436;-48
2021/11/15 08:18:23;;;;;;;12.40;9.37;;;12.80;58.90;;;;;;5012765;28;20433;-46
2021/11/15 08:20:49;;;;;;;13.27;9.30;;;12.80;59.20;;;;;;5010350;28;20197;-49
2021/11/15 08:23:18;;;;;;;14.40;9.07;;;12.90;59.20;;;;;;5012149;28;20228;-50
2021/11/15 08:26:01;;;;;;;13.63;9.50;;;12.90;59.30;;;;;;5011791;28;20992;-49
2021/11/15 08:28:29;;;;;;;14.33;9.30;;;12.90;59.00;;;;;;5012289;28;20436;-48
2021/11/15 08:30:56;;;;;;;11.63;8.47;;;12.90;59.30;;;;;;5011878;28;20456;-49
2021/11/15 08:33:23;;;;;;;17.57;9.70;;;12.90;59.10;;;;;;5012195;28;20429;-50
2021/11/15 08:35:49;;;;;;;16.23;10.00;;;12.90;59.00;;;;;;5011690;28;20425;-50
2021/11/15 08:38:29;;;;;;;18.73;10.30;;;13.00;59.00;;;;;;5011976;28;20799;-51
2021/11/15 08:40:55;;;;;;;14.10;9.33;;;13.00;59.10;;;;;;4999790;28;20443;-50
2021/11/15 08:43:22;;;;;;;13.50;9.30;;;13.10;58.90;;;;;;5011845;28;20488;-50
2021/11/15 08:45:49;;;;;;;15.83;9.53;;;13.00;59.00;;;;;;4993845;28;20201;-51
2021/11/15 08:48:16;;;;;;;12.30;9.00;;;13.10;58.90;;;;;;5010379;28;20425;-49
2021/11/15 08:50:42;;;;;;;12.37;9.27;;;13.20;58.80;;;;;;5011332;28;20429;-50
2021/11/15 08:53:08;;;;;;;16.73;10.80;;;13.10;58.60;;;;;;5011382;28;20432;-45
2021/11/15 08:55:34;;;;;;;15.67;10.03;;;13.10;58.70;;;;;;5011295;28;20421;-45
2021/11/15 08:58:01;;;;;;;11.93;8.67;;;13.10;58.70;;;;;;5011725;28;20413;-46
2021/11/15 09:00:27;;;;;;;14.47;8.63;;;12.90;58.90;;;;;;5011332;28;20425;-45
2021/11/15 09:02:54;;;;;;;13.40;10.07;;;12.90;59.00;;;;;;5011281;28;20546;-45
2021/11/15 09:05:20;;;;;;;15.67;10.20;;;13.00;58.80;;;;;;5011106;28;20468;-46
2021/11/15 09:07:45;;;;;;;16.63;9.93;;;13.00;58.80;;;;;;5011570;28;20784;-46
2021/11/15 09:10:13;;;;;;;14.43;9.53;;;13.00;58.70;;;;;;5011387;28;20425;-46
2021/11/15 09:12:39;;;;;;;14.20;9.53;;;12.90;58.90;;;;;;5011090;28;20190;-46
2021/11/15 09:15:09;;;;;;;12.70;9.17;;;12.90;58.90;;;;;;5010052;28;20449;-46
2021/11/15 09:17:38;;;;;;;17.20;10.93;;;12.90;58.70;;;;;;5011219;28;20432;-46
2021/11/15 09:20:06;;;;;;;14.07;9.50;;;12.80;59.20;;;;;;5011706;28;20888;-47
2021/11/15 09:22:31;;;;;;;17.70;9.70;;;12.80;59.10;;;;;;5010511;28;20851;-45
2021/11/15 09:24:58;;;;;;;17.40;9.50;;;12.70;59.10;;;;;;5011240;28;20421;-46
2021/11/15 09:27:26;;;;;;;16.33;10.33;;;12.70;59.40;;;;;;5010968;28;20209;-46
2021/11/15 09:29:53;;;;;;;13.10;9.00;;;12.60;59.70;;;;;;4993760;28;20441;-50
2021/11/15 09:32:21;;;;;;;14.83;9.57;;;12.40;59.70;;;;;;5010182;28;20460;-46
2021/11/15 09:34:48;;;;;;;13.50;10.13;;;12.40;60.40;;;;;;5011238;28;20428;-50
2021/11/15 09:37:19;;;;;;;15.90;10.60;;;12.60;60.20;;;;;;5010712;28;20440;-47
2021/11/15 09:39:46;;;;;;;12.80;9.00;;;12.70;59.70;;;;;;5009751;28;20435;-49
2021/11/15 09:42:13;;;;;;;14.10;9.77;;;12.90;59.30;;;;;;5010101;28;20481;-47
2021/11/15 09:44:39;;;;;;;11.97;8.83;;;12.80;59.30;;;;;;5011322;28;20437;-48
2021/11/15 09:47:06;;;;;;;13.20;9.90;;;12.80;59.30;;;;;;5010605;28;20432;-46
2021/11/15 09:49:32;;;;;;;12.90;8.47;;;12.70;59.30;;;;;;5011209;28;20441;-50
2021/11/15 09:51:59;;;;;;;12.70;9.77;;;12.80;59.40;;;;;;5010023;28;20472;-50
2021/11/15 09:54:26;;;;;;;13.93;9.37;;;12.70;59.30;;;;;;5010924;28;20947;-47
2021/11/15 09:56:54;;;;;;;13.70;9.80;;;12.80;59.30;;;;;;5010393;28;20768;-48
2021/11/15 09:59:21;;;;;;;13.40;8.90;;;12.80;59.00;;;;;;5011123;28;20853;-47
2021/11/15 10:01:51;;;;;;;13.27;8.70;;;12.80;58.80;;;;;;5010224;28;20441;-45
2021/11/15 10:04:18;;;;;;;14.30;9.90;;;12.80;59.60;;;;;;5010763;28;20421;-46
2021/11/15 10:06:48;;;;;;;15.63;9.17;;;12.90;58.90;;;;;;5011361;28;20445;-47
2021/11/15 10:09:23;;;;;;;13.73;9.93;;;13.00;58.80;;;;;;5014965;28;20960;-47
2021/11/15 10:11:51;;;;;;;13.33;10.33;;;12.90;58.70;;;;;;5014185;28;20436;-47
2021/11/15 10:14:17;;;;;;;12.97;9.53;;;12.70;59.00;;;;;;5014727;28;20464;-49
2021/11/15 10:17:01;;;;;;;14.97;10.10;;;12.70;59.40;;;;;;5014465;28;20515;-47
2021/11/15 10:19:29;;;;;;;14.07;9.90;;;12.50;59.60;;;;;;5014777;28;20514;-48
2021/11/15 10:21:59;;;;;;;14.13;10.60;;;12.60;59.50;;;;;;5013656;28;20487;-49
2021/11/15 10:24:37;;;;;;;14.20;9.97;;;12.80;59.30;;;;;;5014857;28;20470;-50
2021/11/15 10:27:04;;;;;;;15.70;9.33;;;13.00;59.00;;;;;;5014401;28;20539;-47
2021/11/15 10:29:36;;;;;;;13.50;10.60;;;13.00;58.60;;;;;;5014885;28;20433;-51
2021/11/15 10:32:03;;;;;;;13.83;9.50;;;12.90;58.90;;;;;;5013744;28;20435;-48
2021/11/15 10:34:36;;;;;;;12.73;9.57;;;13.00;58.60;;;;;;5012633;28;20951;-50
2021/11/15 10:37:39;;;;;;;13.50;10.70;;;13.00;58.60;;;;;;5014050;28;20421;-50
2021/11/15 10:40:09;;;;;;;15.27;10.27;;;13.10;58.50;;;;;;4956780;28;20438;-50
2021/11/15 10:42:50;;;;;;;12.77;9.57;;;13.20;58.30;;;;;;4989334;28;20850;-48
2021/11/15 10:45:24;;;;;;;15.77;10.27;;;13.10;58.50;;;;;;5013750;28;20444;-49
2021/11/15 10:47:55;;;;;;;15.73;10.37;;;13.00;58.50;;;;;;5014278;28;20433;-50
2021/11/15 10:50:24;;;;;;;12.87;9.63;;;13.10;58.60;;;;;;5013354;28;20800;-47
2021/11/15 10:53:14;;;;;;;16.30;9.70;;;12.90;58.50;;;;;;5013722;28;20437;-46
2021/11/15 10:56:02;;;;;;;13.17;9.50;;;13.00;58.60;;;;;;5002366;28;20433;-46
2021/11/15 10:58:27;;;;;;;15.70;10.90;;;13.20;58.30;;;;;;5014181;28;20540;-50
2021/11/15 11:01:02;;;;;;;15.50;10.67;;;13.10;58.40;;;;;;5011901;28;20508;-50
2021/11/15 11:03:28;;;;;;;11.20;9.60;;;13.00;58.60;;;;;;5013773;28;20324;-46
2021/11/15 11:05:57;;;;;;;17.33;11.70;;;12.90;58.90;;;;;;4995776;28;20441;-48
2021/11/15 11:08:28;;;;;;;12.70;9.30;;;12.80;58.80;;;;;;5013711;28;20530;-49
2021/11/15 11:11:01;;;;;;;14.17;9.73;;;12.70;59.00;;;;;;5013211;28;20465;-49
2021/11/15 11:13:49;;;;;;;13.60;9.47;;;12.90;59.00;;;;;;5013428;28;20498;-50
2021/11/15 11:16:16;;;;;;;15.13;10.23;;;13.00;58.70;;;;;;5012933;28;20436;-50
2021/11/15 11:18:49;;;;;;;12.57;10.10;;;12.90;58.40;;;;;;5013852;28;20803;-50
2021/11/15 11:24:32;;;;;;;12.07;9.83;;;12.50;59.00;;;;;;5013595;28;20524;-49
2021/11/15 11:27:00;;;;;;;12.63;10.33;;;12.50;59.20;;;;;;5011416;28;20609;-46
2021/11/15 11:29:36;;;;;;;13.77;10.57;;;12.60;58.80;;;;;;5013440;28;20429;-46
2021/11/15 11:32:07;;;;;;;11.97;9.67;;;12.50;58.90;;;;;;5012557;28;20439;-48
2021/11/15 11:34:34;;;;;;;12.90;9.93;;;12.20;59.30;;;;;;5013718;28;20417;-46
2021/11/15 11:37:03;;;;;;;12.50;9.63;;;12.30;59.30;;;;;;5012956;28;20420;-50
2021/11/15 11:39:29;;;;;;;14.17;10.20;;;12.60;59.00;;;;;;5002399;28;21065;-46
2021/11/15 11:41:59;;;;;;;13.27;10.00;;;12.70;58.80;;;;;;5010975;28;20515;-46
2021/11/15 11:44:27;;;;;;;15.40;9.60;;;12.70;58.30;;;;;;5013195;28;20437;-46
2021/11/15 11:46:54;;;;;;;14.57;10.03;;;12.80;57.90;;;;;;5012606;28;20787;-46
2021/11/15 11:49:24;;;;;;;13.30;10.50;;;12.90;57.90;;;;;;5013150;28;21018;-48
2021/11/15 11:51:53;;;;;;;15.20;10.20;;;13.00;57.70;;;;;;5011866;28;20507;-46
2021/11/15 11:54:29;;;;;;;11.33;9.00;;;13.10;57.80;;;;;;5011477;28;20433;-50
2021/11/15 11:57:15;;;;;;;12.20;9.63;;;13.10;57.70;;;;;;5012498;28;20829;-50
2021/11/15 11:59:47;;;;;;;14.20;10.70;;;12.90;57.90;;;;;;5012848;28;20452;-49
2021/11/15 12:02:18;;;;;;;15.73;11.70;;;12.90;58.00;;;;;;5011981;28;20493;-48
2021/11/15 12:05:05;;;;;;;13.83;9.97;;;12.80;57.90;;;;;;5012736;28;20445;-48
2021/11/15 12:07:39;;;;;;;12.70;10.50;;;12.50;58.60;;;;;;5012600;28;20472;-49
2021/11/15 12:10:09;;;;;;;12.30;9.73;;;12.60;58.70;;;;;;5012627;28;20977;-49
2021/11/15 12:12:53;;;;;;;15.17;11.33;;;12.70;58.60;;;;;;5012442;28;20773;-46
2021/11/15 12:15:33;;;;;;;14.50;11.20;;;12.90;58.30;;;;;;5012477;28;20443;-47
2021/11/15 12:18:17;;;;;;;12.80;10.10;;;12.90;58.00;;;;;;5012418;28;20943;-46
2021/11/15 12:21:05;;;;;;;13.63;11.13;;;12.70;58.40;;;;;;5009215;28;20441;-46
2021/11/15 12:23:35;;;;;;;17.27;11.33;;;12.80;58.40;;;;;;5012626;28;20954;-48
2021/11/15 12:26:24;;;;;;;15.20;11.50;;;12.80;58.40;;;;;;5012019;28;20429;-46
2021/11/15 12:28:53;;;;;;;14.57;11.50;;;12.90;58.50;;;;;;5011835;28;20437;-47
2021/11/15 12:31:49;;;;;;;12.40;10.77;;;12.80;58.60;;;;;;5011563;28;20445;-47
2021/11/15 12:34:19;;;;;;;14.73;11.53;;;12.80;58.60;;;;;;5011604;28;20503;-48
2021/11/15 12:36:50;;;;;;;16.63;11.80;;;13.00;58.40;;;;;;5011825;28;20427;-45
2021/11/15 12:39:19;;;;;;;15.50;11.70;;;12.60;58.60;;;;;;5010955;28;20425;-46